Terminal Aerodrome Forecast
Issued by NWS Charleston, SC

Home | Current Version | Previous Version | Text Only | Print | Product List | Glossary On
Versions: 1 2 3 4 5 6 7 8 9 10 11 12 13 14 15 16 17 18 19 20 21 22 23 24
720
FTUS42 KCHS 061128
TAFCHS
TAF
KCHS 061128Z 0612/0712 03010KT P6SM SCT060 BKN250
     FM061600 03010KT P6SM BKN060
     FM062100 02009KT P6SM -RA OVC050
     FM070200 36013G20KT 6SM -RA BR SCT015 OVC035
     FM070500 36017G27KT 5SM RA BR SCT008 OVC015=

USA.gov is the U.S. government's official web portal to all federal, state and local government web resources and services.